sensor_id;sensor_type;location;lat;lon;timestamp;pressure;altitude;pressure_sealevel;temperature;humidity
59419;BME280;45224;50.904;6.038;2023-05-10T00:01:06;99126.59;;;13.57;100.00
59419;BME280;45224;50.904;6.038;2023-05-10T00:02:37;99120.59;;;13.55;100.00
59419;BME280;45224;50.904;6.038;2023-05-10T00:04:08;99122.44;;;13.50;100.00
59419;BME280;45224;50.904;6.038;2023-05-10T00:05:39;99121.47;;;13.54;100.00
59419;BME280;45224;50.904;6.038;2023-05-10T00:07:09;99119.13;;;13.42;100.00
59419;BME280;45224;50.904;6.038;2023-05-10T00:08:40;99109.56;;;13.45;100.00
59419;BME280;45224;50.904;6.038;2023-05-10T00:10:11;99124.22;;;13.48;100.00
59419;BME280;45224;50.904;6.038;2023-05-10T00:11:42;99122.50;;;13.47;100.00
59419;BME280;45224;50.904;6.038;2023-05-10T00:13:12;99111.25;;;13.46;100.00
59419;BME280;45224;50.904;6.038;2023-05-10T00:14:43;99127.72;;;13.47;100.00
59419;BME280;45224;50.904;6.038;2023-05-10T00:16:13;99115.59;;;13.46;100.00
59419;BME280;45224;50.904;6.038;2023-05-10T00:17:44;99107.84;;;13.44;100.00
59419;BME280;45224;50.904;6.038;2023-05-10T00:19:14;99117.31;;;13.47;100.00
59419;BME280;45224;50.904;6.038;2023-05-10T00:20:45;99105.25;;;13.44;100.00
59419;BME280;45224;50.904;6.038;2023-05-10T00:22:16;99110.47;;;13.43;100.00
59419;BME280;45224;50.904;6.038;2023-05-10T00:23:46;99110.47;;;13.43;100.00
59419;BME280;45224;50.904;6.038;2023-05-10T00:25:17;99113.22;;;13.35;100.00
59419;BME280;45224;50.904;6.038;2023-05-10T00:26:47;99114.03;;;13.39;100.00
59419;BME280;45224;50.904;6.038;2023-05-10T00:28:18;99110.47;;;13.43;100.00
59419;BME280;45224;50.904;6.038;2023-05-10T00:29:48;99118.94;;;13.51;100.00
59419;BME280;45224;50.904;6.038;2023-05-10T00:31:19;99109.50;;;13.48;100.00
59419;BME280;45224;50.904;6.038;2023-05-10T00:32:49;99125.88;;;13.50;100.00
59419;BME280;45224;50.904;6.038;2023-05-10T00:34:20;99115.66;;;13.43;100.00
59419;BME280;45224;50.904;6.038;2023-05-10T00:35:51;99125.13;;;13.47;100.00
59419;BME280;45224;50.904;6.038;2023-05-10T00:40:21;99117.38;;;13.44;100.00
59419;BME280;45224;50.904;6.038;2023-05-10T00:42:11;99122.44;;;13.50;100.00
59419;BME280;45224;50.904;6.038;2023-05-10T00:43:42;99118.09;;;13.50;100.00
59419;BME280;45224;50.904;6.038;2023-05-10T00:45:12;99122.50;;;13.47;100.00
59419;BME280;45224;50.904;6.038;2023-05-10T00:46:43;99123.19;;;13.55;100.00
59419;BME280;45224;50.904;6.038;2023-05-10T00:48:13;99116.22;;;13.57;100.00
59419;BME280;45224;50.904;6.038;2023-05-10T00:49:44;99117.13;;;13.55;100.00
59419;BME280;45224;50.904;6.038;2023-05-10T00:51:15;99116.22;;;13.57;100.00
59419;BME280;45224;50.904;6.038;2023-05-10T00:52:46;99109.47;;;13.50;100.00
59419;BME280;45224;50.904;6.038;2023-05-10T00:54:16;99122.22;;;13.59;100.00
59419;BME280;45224;50.904;6.038;2023-05-10T00:55:47;99122.16;;;13.62;100.00
59419;BME280;45224;50.904;6.038;2023-05-10T00:57:18;99118.69;;;13.63;100.00
59419;BME280;45224;50.904;6.038;2023-05-10T00:58:50;99118.69;;;13.63;100.00
59419;BME280;45224;50.904;6.038;2023-05-10T01:00:20;99122.16;;;13.62;100.00
59419;BME280;45224;50.904;6.038;2023-05-10T01:01:51;99117.72;;;13.66;100.00
59419;BME280;45224;50.904;6.038;2023-05-10T01:03:22;99113.44;;;13.65;100.00
59419;BME280;45224;50.904;6.038;2023-05-10T01:04:52;99117.72;;;13.66;100.00
59419;BME280;45224;50.904;6.038;2023-05-10T01:06:23;99115.09;;;13.67;100.00
59419;BME280;45224;50.904;6.038;2023-05-10T01:07:53;99116.06;;;13.63;100.00
59419;BME280;45224;50.904;6.038;2023-05-10T01:09:24;99118.75;;;13.60;100.00
59419;BME280;45224;50.904;6.038;2023-05-10T01:10:56;99129.19;;;13.57;100.00
59419;BME280;45224;50.904;6.038;2023-05-10T01:12:27;99125.84;;;13.52;100.00
59419;BME280;45224;50.904;6.038;2023-05-10T01:13:58;99119.75;;;13.53;100.00
59419;BME280;45224;50.904;6.038;2023-05-10T01:15:30;99124.00;;;13.57;100.00
59419;BME280;45224;50.904;6.038;2023-05-10T01:17:01;99125.72;;;13.58;100.00
59419;BME280;45224;50.904;6.038;2023-05-10T01:18:36;99126.66;;;13.54;100.00
59419;BME280;45224;50.904;6.038;2023-05-10T01:20:09;99117.25;;;13.50;100.00
59419;BME280;45224;50.904;6.038;2023-05-10T01:35:02;99121.97;;;13.32;100.00
59419;BME280;45224;50.904;6.038;2023-05-10T01:37:06;99120.97;;;13.38;100.00
59419;BME280;45224;50.904;6.038;2023-05-10T01:38:47;99121.00;;;13.37;100.00
59419;BME280;45224;50.904;6.038;2023-05-10T01:40:30;99121.91;;;13.36;100.00
59419;BME280;45224;50.904;6.038;2023-05-10T01:45:27;99109.81;;;13.31;100.00
59419;BME280;45224;50.904;6.038;2023-05-10T01:47:08;99114.34;;;13.23;100.00
59419;BME280;45224;50.904;6.038;2023-05-10T01:48:44;99113.34;;;13.29;100.00
59419;BME280;45224;50.904;6.038;2023-05-10T01:50:29;99110.66;;;13.32;100.00
59419;BME280;45224;50.904;6.038;2023-05-10T01:52:06;99112.47;;;13.30;100.00
59419;BME280;45224;50.904;6.038;2023-05-10T01:53:38;99108.09;;;13.30;100.00
59419;BME280;45224;50.904;6.038;2023-05-10T01:55:15;99112.56;;;13.25;100.00
59419;BME280;45224;50.904;6.038;2023-05-10T01:56:55;99118.69;;;13.23;100.00
59419;BME280;45224;50.904;6.038;2023-05-10T01:58:33;99116.81;;;13.29;100.00
59419;BME280;45224;50.904;6.038;2023-05-10T02:00:08;99122.88;;;13.28;100.00
59419;BME280;45224;50.904;6.038;2023-05-10T02:01:46;99129.81;;;13.28;100.00
59419;BME280;45224;50.904;6.038;2023-05-10T02:03:23;99122.88;;;13.28;100.00
59419;BME280;45224;50.904;6.038;2023-05-10T02:04:54;99128.84;;;13.33;100.00
59419;BME280;45224;50.904;6.038;2023-05-10T02:06:26;99121.97;;;13.32;100.00
59419;BME280;45224;50.904;6.038;2023-05-10T02:07:57;99126.38;;;13.27;100.00
59419;BME280;45224;50.904;6.038;2023-05-10T02:09:29;99125.50;;;13.27;100.00
59419;BME280;45224;50.904;6.038;2023-05-10T02:11:03;99123.72;;;13.29;100.00
59419;BME280;45224;50.904;6.038;2023-05-10T02:12:36;99120.22;;;13.33;100.00
59419;BME280;45224;50.904;6.038;2023-05-10T02:14:09;99120.28;;;13.28;100.00
59419;BME280;45224;50.904;6.038;2023-05-10T02:15:41;99126.38;;;13.27;100.00
59419;BME280;45224;50.904;6.038;2023-05-10T02:17:13;99133.03;;;13.41;100.00
59419;BME280;45224;50.904;6.038;2023-05-10T02:18:44;99133.09;;;13.38;100.00
59419;BME280;45224;50.904;6.038;2023-05-10T02:20:18;99140.06;;;13.36;100.00
59419;BME280;45224;50.904;6.038;2023-05-10T02:21:50;99140.91;;;13.36;100.00
59419;BME280;45224;50.904;6.038;2023-05-10T02:23:21;99142.63;;;13.37;100.00
59419;BME280;45224;50.904;6.038;2023-05-10T02:24:58;99141.00;;;13.30;100.00
59419;BME280;45224;50.904;6.038;2023-05-10T02:26:31;99151.53;;;13.24;100.00
59419;BME280;45224;50.904;6.038;2023-05-10T02:28:05;99147.22;;;13.24;100.00
59419;BME280;45224;50.904;6.038;2023-05-10T02:29:37;99149.78;;;13.26;100.00
59419;BME280;45224;50.904;6.038;2023-05-10T02:31:08;99142.13;;;13.18;100.00
59419;BME280;45224;50.904;6.038;2023-05-10T02:32:42;99147.25;;;13.21;100.00
59419;BME280;45224;50.904;6.038;2023-05-10T02:34:13;99149.78;;;13.26;100.00
59419;BME280;45224;50.904;6.038;2023-05-10T02:35:44;99153.38;;;13.19;100.00
59419;BME280;45224;50.904;6.038;2023-05-10T02:37:17;99151.56;;;13.22;100.00
59419;BME280;45224;50.904;6.038;2023-05-10T02:38:49;99158.63;;;13.15;100.00
59419;BME280;45224;50.904;6.038;2023-05-10T02:40:22;99149.97;;;13.15;100.00
59419;BME280;45224;50.904;6.038;2023-05-10T02:41:54;99147.38;;;13.15;100.00
59419;BME280;45224;50.904;6.038;2023-05-10T02:43:26;99152.53;;;13.18;100.00
59419;BME280;45224;50.904;6.038;2023-05-10T02:45:00;99154.31;;;13.16;100.00
59419;BME280;45224;50.904;6.038;2023-05-10T02:46:31;99154.41;;;13.10;100.00
59419;BME280;45224;50.904;6.038;2023-05-10T02:48:01;99150.13;;;13.07;100.00
59419;BME280;45224;50.904;6.038;2023-05-10T02:49:33;99145.13;;;12.98;100.00
59419;BME280;45224;50.904;6.038;2023-05-10T02:51:07;99150.97;;;13.08;100.00
59419;BME280;45224;50.904;6.038;2023-05-10T02:52:46;99152.69;;;13.09;100.00
59419;BME280;45224;50.904;6.038;2023-05-10T02:54:24;99145.78;;;13.08;100.00
59419;BME280;45224;50.904;6.038;2023-05-10T02:56:00;99147.53;;;13.07;100.00
59419;BME280;45224;50.904;6.038;2023-05-10T02:57:33;99150.16;;;13.06;100.00
59419;BME280;45224;50.904;6.038;2023-05-10T02:59:04;99156.31;;;13.02;100.00
59419;BME280;45224;50.904;6.038;2023-05-10T03:00:35;99138.97;;;13.04;100.00
59419;BME280;45224;50.904;6.038;2023-05-10T03:02:07;99152.88;;;13.00;100.00
59419;BME280;45224;50.904;6.038;2023-05-10T03:03:37;99149.47;;;12.97;100.00
59419;BME280;45224;50.904;6.038;2023-05-10T03:05:08;99152.94;;;12.96;100.00
59419;BME280;45224;50.904;6.038;2023-05-10T03:06:40;99153.88;;;12.94;100.00
59419;BME280;45224;50.904;6.038;2023-05-10T03:08:11;99152.25;;;12.88;100.00
59419;BME280;45224;50.904;6.038;2023-05-10T03:09:41;99153.13;;;12.87;100.00
59419;BME280;45224;50.904;6.038;2023-05-10T03:11:32;99149.66;;;12.87;100.00
59419;BME280;45224;50.904;6.038;2023-05-10T03:13:24;99152.41;;;12.81;100.00
59419;BME280;45224;50.904;6.038;2023-05-10T03:17:10;99154.03;;;12.85;100.00
59419;BME280;45224;50.904;6.038;2023-05-10T03:18:54;99149.91;;;12.76;100.00
59419;BME280;45224;50.904;6.038;2023-05-10T03:20:29;99151.53;;;12.80;100.00
59419;BME280;45224;50.904;6.038;2023-05-10T03:22:04;99148.97;;;12.78;100.00
59419;BME280;45224;50.904;6.038;2023-05-10T03:23:51;99154.09;;;12.82;100.00
59419;BME280;45224;50.904;6.038;2023-05-10T03:25:25;99145.81;;;12.63;100.00
59419;BME280;45224;50.904;6.038;2023-05-10T03:26:59;99154.50;;;12.60;100.00
59419;BME280;45224;50.904;6.038;2023-05-10T03:28:34;99150.16;;;12.62;100.00
59419;BME280;45224;50.904;6.038;2023-05-10T03:30:08;99156.97;;;12.68;100.00
59419;BME280;45224;50.904;6.038;2023-05-10T03:31:41;99157.91;;;12.64;100.00
59419;BME280;45224;50.904;6.038;2023-05-10T03:33:12;99153.53;;;12.66;100.00
59419;BME280;45224;50.904;6.038;2023-05-10T03:34:45;99163.91;;;12.66;100.00
59419;BME280;45224;50.904;6.038;2023-05-10T03:36:17;99145.84;;;12.61;100.00
59419;BME280;45224;50.904;6.038;2023-05-10T03:37:47;99151.91;;;12.62;100.00
59419;BME280;45224;50.904;6.038;2023-05-10T03:39:18;99153.53;;;12.66;100.00
59419;BME280;45224;50.904;6.038;2023-05-10T03:40:54;99153.59;;;12.63;100.00
59419;BME280;45224;50.904;6.038;2023-05-10T03:42:24;99152.81;;;12.57;100.00
59419;BME280;45224;50.904;6.038;2023-05-10T03:43:54;99151.09;;;12.58;100.00
59419;BME280;45224;50.904;6.038;2023-05-10T03:45:25;99162.44;;;12.51;100.00
59419;BME280;45224;50.904;6.038;2023-05-10T03:46:56;99160.72;;;12.51;100.00
59419;BME280;45224;50.904;6.038;2023-05-10T03:48:27;99162.22;;;12.65;100.00
59419;BME280;45224;50.904;6.038;2023-05-10T03:49:57;99172.53;;;12.68;100.00
59419;BME280;45224;50.904;6.038;2023-05-10T03:51:28;99165.72;;;12.60;100.00
59419;BME280;45224;50.904;6.038;2023-05-10T03:52:58;99165.63;;;12.67;100.00
59419;BME280;45224;50.904;6.038;2023-05-10T03:54:30;99167.41;;;12.65;100.00
59419;BME280;45224;50.904;6.038;2023-05-10T03:56:01;99167.63;;;12.52;100.00
59419;BME280;45224;50.904;6.038;2023-05-10T03:57:31;99165.72;;;12.62;100.00
59419;BME280;45224;50.904;6.038;2023-05-10T03:59:02;99170.91;;;12.60;100.00
59419;BME280;45224;50.904;6.038;2023-05-10T04:00:37;99176.09;;;12.60;100.00
59419;BME280;45224;50.904;6.038;2023-05-10T04:02:13;99178.59;;;12.67;100.00
59419;BME280;45224;50.904;6.038;2023-05-10T04:03:44;99181.19;;;12.67;100.00
59419;BME280;45224;50.904;6.038;2023-05-10T04:05:16;99173.31;;;12.71;100.00
59419;BME280;45224;50.904;6.038;2023-05-10T04:06:46;99179.53;;;12.63;100.00
59419;BME280;45224;50.904;6.038;2023-05-10T04:08:17;99173.50;;;12.62;100.00
59419;BME280;45224;50.904;6.038;2023-05-10T04:09:47;99175.28;;;12.58;100.00
59419;BME280;45224;50.904;6.038;2023-05-10T04:11:18;99177.94;;;12.55;100.00
59419;BME280;45224;50.904;6.038;2023-05-10T04:12:48;99179.53;;;12.61;100.00
59419;BME280;45224;50.904;6.038;2023-05-10T04:14:19;99179.53;;;12.63;100.00
59419;BME280;45224;50.904;6.038;2023-05-10T04:15:49;99165.84;;;12.54;100.00
59419;BME280;45224;50.904;6.038;2023-05-10T04:17:20;99173.53;;;12.59;100.00
59419;BME280;45224;50.904;6.038;2023-05-10T04:18:50;99176.25;;;12.53;100.00
59419;BME280;45224;50.904;6.038;2023-05-10T04:20:21;99172.78;;;12.52;100.00
59419;BME280;45224;50.904;6.038;2023-05-10T04:21:51;99164.25;;;12.47;100.00
59419;BME280;45224;50.904;6.038;2023-05-10T04:23:22;99174.56;;;12.50;100.00
59419;BME280;45224;50.904;6.038;2023-05-10T04:24:52;99171.19;;;12.47;100.00
59419;BME280;45224;50.904;6.038;2023-05-10T04:26:23;99167.75;;;12.43;100.00
59419;BME280;45224;50.904;6.038;2023-05-10T04:27:55;99165.03;;;12.51;100.00
59419;BME280;45224;50.904;6.038;2023-05-10T04:29:26;99169.38;;;12.50;100.00
59419;BME280;45224;50.904;6.038;2023-05-10T04:31:04;99171.13;;;12.48;100.00
59419;BME280;45224;50.904;6.038;2023-05-10T04:32:35;99173.66;;;12.53;100.00
59419;BME280;45224;50.904;6.038;2023-05-10T04:34:05;99177.16;;;12.50;100.00
59419;BME280;45224;50.904;6.038;2023-05-10T04:35:35;99170.34;;;12.45;100.00
59419;BME280;45224;50.904;6.038;2023-05-10T04:37:06;99179.81;;;12.47;100.00
59419;BME280;45224;50.904;6.038;2023-05-10T04:38:37;99180.00;;;12.35;100.00
59419;BME280;45224;50.904;6.038;2023-05-10T04:40:08;99173.00;;;12.40;100.00
59419;BME280;45224;50.904;6.038;2023-05-10T04:41:39;99175.50;;;12.46;100.00
59419;BME280;45224;50.904;6.038;2023-05-10T04:43:09;99176.41;;;12.44;100.00
59419;BME280;45224;50.904;6.038;2023-05-10T04:44:40;99175.53;;;12.43;100.00
59419;BME280;45224;50.904;6.038;2023-05-10T04:46:11;99184.16;;;12.47;100.00
59419;BME280;45224;50.904;6.038;2023-05-10T04:47:42;99184.16;;;12.47;100.00
59419;BME280;45224;50.904;6.038;2023-05-10T04:49:12;99183.22;;;12.49;100.00
59419;BME280;45224;50.904;6.038;2023-05-10T04:50:42;99180.72;;;12.43;100.00
59419;BME280;45224;50.904;6.038;2023-05-10T04:52:13;99183.31;;;12.43;100.00
59419;BME280;45224;50.904;6.038;2023-05-10T04:53:44;99175.53;;;12.43;100.00
59419;BME280;45224;50.904;6.038;2023-05-10T04:55:15;99189.34;;;12.45;100.00
59419;BME280;45224;50.904;6.038;2023-05-10T04:56:45;99183.31;;;12.43;100.00
59419;BME280;45224;50.904;6.038;2023-05-10T04:58:16;99191.88;;;12.48;100.00
59419;BME280;45224;50.904;6.038;2023-05-10T04:59:46;99191.00;;;12.49;100.00
59419;BME280;45224;50.904;6.038;2023-05-10T05:01:16;99191.75;;;12.54;100.00
59419;BME280;45224;50.904;6.038;2023-05-10T05:02:47;99190.03;;;12.56;100.00
59419;BME280;45224;50.904;6.038;2023-05-10T05:04:18;99193.44;;;12.58;100.00
59419;BME280;45224;50.904;6.038;2023-05-10T05:05:48;99199.41;;;12.62;100.00
59419;BME280;45224;50.904;6.038;2023-05-10T05:07:19;99196.03;;;12.58;100.00
59419;BME280;45224;50.904;6.038;2023-05-10T05:08:49;99190.81;;;12.60;100.00
59419;BME280;45224;50.904;6.038;2023-05-10T05:10:20;99191.66;;;12.60;100.00
59419;BME280;45224;50.904;6.038;2023-05-10T05:11:50;99193.41;;;12.60;100.00
59419;BME280;45224;50.904;6.038;2023-05-10T05:13:21;99193.38;;;12.62;100.00
59419;BME280;45224;50.904;6.038;2023-05-10T05:14:51;99191.72;;;12.57;100.00
59419;BME280;45224;50.904;6.038;2023-05-10T05:16:22;99201.84;;;12.73;100.00
59419;BME280;45224;50.904;6.038;2023-05-10T05:17:53;99197.56;;;12.69;100.00
59419;BME280;45224;50.904;6.038;2023-05-10T05:19:23;99202.75;;;12.69;100.00
59419;BME280;45224;50.904;6.038;2023-05-10T05:20:54;99202.69;;;12.72;100.00
59419;BME280;45224;50.904;6.038;2023-05-10T05:22:24;99198.38;;;12.71;100.00
59419;BME280;45224;50.904;6.038;2023-05-10T05:23:58;99203.53;;;12.74;100.00
59419;BME280;45224;50.904;6.038;2023-05-10T05:25:29;99202.81;;;12.66;100.00
59419;BME280;45224;50.904;6.038;2023-05-10T05:27:00;99208.91;;;12.65;100.00
59419;BME280;45224;50.904;6.038;2023-05-10T05:28:31;99205.34;;;12.69;100.00
59419;BME280;45224;50.904;6.038;2023-05-10T05:30:04;99203.72;;;12.65;100.00
59419;BME280;45224;50.904;6.038;2023-05-10T05:31:35;99208.88;;;12.66;100.00
59419;BME280;45224;50.904;6.038;2023-05-10T05:33:05;99214.09;;;12.65;100.00
59419;BME280;45224;50.904;6.038;2023-05-10T05:34:36;99212.31;;;12.67;100.00
59419;BME280;45224;50.904;6.038;2023-05-10T05:36:06;99209.66;;;12.70;100.00
59419;BME280;45224;50.904;6.038;2023-05-10T05:37:37;99208.91;;;12.65;100.00
59419;BME280;45224;50.904;6.038;2023-05-10T05:39:07;99212.22;;;12.71;100.00
59419;BME280;45224;50.904;6.038;2023-05-10T05:40:38;99213.91;;;12.74;100.00
59419;BME280;45224;50.904;6.038;2023-05-10T05:42:09;99221.59;;;12.78;100.00
59419;BME280;45224;50.904;6.038;2023-05-10T05:43:40;99221.69;;;12.74;100.00
59419;BME280;45224;50.904;6.038;2023-05-10T05:45:11;99220.75;;;12.78;100.00
59419;BME280;45224;50.904;6.038;2023-05-10T05:46:43;99230.25;;;12.79;100.00
59419;BME280;45224;50.904;6.038;2023-05-10T05:48:13;99227.69;;;12.77;100.00
59419;BME280;45224;50.904;6.038;2023-05-10T05:49:44;99231.22;;;12.73;100.00
59419;BME280;45224;50.904;6.038;2023-05-10T05:51:17;99227.69;;;12.77;100.00
59419;BME280;45224;50.904;6.038;2023-05-10T05:52:48;99232.81;;;12.81;100.00
59419;BME280;45224;50.904;6.038;2023-05-10T05:54:18;99225.88;;;12.81;100.00
59419;BME280;45224;50.904;6.038;2023-05-10T05:55:53;99226.88;;;12.72;100.00
59419;BME280;45224;50.904;6.038;2023-05-10T05:57:24;99232.84;;;12.79;100.00
59419;BME280;45224;50.904;6.038;2023-05-10T05:58:56;99228.63;;;12.72;100.00
59419;BME280;45224;50.904;6.038;2023-05-10T06:00:27;99237.09;;;12.82;100.00
59419;BME280;45224;50.904;6.038;2023-05-10T06:01:57;99233.66;;;12.83;100.00
59419;BME280;45224;50.904;6.038;2023-05-10T06:03:28;99231.06;;;12.81;100.00
59419;BME280;45224;50.904;6.038;2023-05-10T06:04:59;99231.13;;;12.78;100.00
59419;BME280;45224;50.904;6.038;2023-05-10T06:06:29;99239.72;;;12.80;100.00
59419;BME280;45224;50.904;6.038;2023-05-10T06:08:00;99240.50;;;12.85;100.00
59419;BME280;45224;50.904;6.038;2023-05-10T06:09:31;99244.81;;;12.86;100.00
59419;BME280;45224;50.904;6.038;2023-05-10T06:11:01;99241.22;;;12.93;100.00
59419;BME280;45224;50.904;6.038;2023-05-10T06:12:34;99243.81;;;12.93;100.00
59419;BME280;45224;50.904;6.038;2023-05-10T06:14:05;99248.06;;;12.97;100.00
59419;BME280;45224;50.904;6.038;2023-05-10T06:15:37;99253.28;;;12.96;100.00
59419;BME280;45224;50.904;6.038;2023-05-10T06:17:08;99248.06;;;12.97;100.00
59419;BME280;45224;50.904;6.038;2023-05-10T06:18:39;99241.16;;;12.96;100.00
59419;BME280;45224;50.904;6.038;2023-05-10T06:20:10;99250.63;;;12.99;100.00
59419;BME280;45224;50.904;6.038;2023-05-10T06:21:41;99248.06;;;12.97;100.00
59419;BME280;45224;50.904;6.038;2023-05-10T06:23:11;99242.97;;;12.91;100.00
59419;BME280;45224;50.904;6.038;2023-05-10T06:24:41;99250.59;;;13.02;100.00
59419;BME280;45224;50.904;6.038;2023-05-10T06:26:12;99251.44;;;13.03;100.00
59419;BME280;45224;50.904;6.038;2023-05-10T06:27:44;99248.78;;;13.06;100.00
59419;BME280;45224;50.904;6.038;2023-05-10T06:29:14;99252.13;;;13.11;100.00
59419;BME280;45224;50.904;6.038;2023-05-10T06:30:45;99249.53;;;13.11;100.00
59419;BME280;45224;50.904;6.038;2023-05-10T06:32:15;99253.81;;;13.15;100.00
59419;BME280;45224;50.904;6.038;2023-05-10T06:33:46;99251.25;;;13.12;100.00
59419;BME280;45224;50.904;6.038;2023-05-10T06:35:16;99258.00;;;13.21;100.00
59419;BME280;45224;50.904;6.038;2023-05-10T06:36:47;99266.66;;;13.21;100.00
59419;BME280;45224;50.904;6.038;2023-05-10T06:38:17;99266.66;;;13.21;100.00
59419;BME280;45224;50.904;6.038;2023-05-10T06:39:48;99259.75;;;13.20;100.00
59419;BME280;45224;50.904;6.038;2023-05-10T06:41:18;99269.16;;;13.27;100.00
59419;BME280;45224;50.904;6.038;2023-05-10T06:42:49;99263.91;;;13.29;100.00
59419;BME280;45224;50.904;6.038;2023-05-10T06:44:19;99269.94;;;13.32;100.00
59419;BME280;45224;50.904;6.038;2023-05-10T06:45:50;99270.00;;;13.28;100.00
59419;BME280;45224;50.904;6.038;2023-05-10T06:47:20;99273.50;;;13.25;100.00
59419;BME280;45224;50.904;6.038;2023-05-10T06:48:52;99268.31;;;13.25;100.00
59419;BME280;45224;50.904;6.038;2023-05-10T06:50:22;99270.97;;;13.22;100.00
59419;BME280;45224;50.904;6.038;2023-05-10T06:51:53;99267.34;;;13.31;100.00
59419;BME280;45224;50.904;6.038;2023-05-10T06:53:24;99282.88;;;13.36;100.00
59419;BME280;45224;50.904;6.038;2023-05-10T06:54:54;99275.19;;;13.28;100.00
59419;BME280;45224;50.904;6.038;2023-05-10T06:56:25;99283.81;;;13.28;100.00
59419;BME280;45224;50.904;6.038;2023-05-10T06:57:55;99285.47;;;13.36;100.00
59419;BME280;45224;50.904;6.038;2023-05-10T06:59:25;99281.19;;;13.33;100.00
59419;BME280;45224;50.904;6.038;2023-05-10T07:01:02;99293.44;;;13.23;100.00
59419;BME280;45224;50.904;6.038;2023-05-10T07:02:32;99288.28;;;13.22;100.00
59419;BME280;45224;50.904;6.038;2023-05-10T07:04:03;99289.03;;;13.27;100.00
59419;BME280;45224;50.904;6.038;2023-05-10T07:05:34;99295.94;;;13.29;100.00
59419;BME280;45224;50.904;6.038;2023-05-10T07:07:04;99295.94;;;13.29;100.00
59419;BME280;45224;50.904;6.038;2023-05-10T07:08:35;99301.59;;;13.03;100.00
59419;BME280;45224;50.904;6.038;2023-05-10T07:10:06;99301.41;;;13.14;100.00
59419;BME280;45224;50.904;6.038;2023-05-10T07:11:38;99303.13;;;13.15;100.00
59419;BME280;45224;50.904;6.038;2023-05-10T07:13:08;99297.97;;;13.12;100.00
59419;BME280;45224;50.904;6.038;2023-05-10T07:14:39;99300.53;;;13.15;100.00
59419;BME280;45224;50.904;6.038;2023-05-10T07:16:10;99304.84;;;13.16;100.00
59419;BME280;45224;50.904;6.038;2023-05-10T07:17:41;99310.84;;;13.18;100.00
59419;BME280;45224;50.904;6.038;2023-05-10T07:19:11;99304.84;;;13.16;100.00
59419;BME280;45224;50.904;6.038;2023-05-10T07:20:42;99309.94;;;13.19;100.00
59419;BME280;45224;50.904;6.038;2023-05-10T07:22:13;99305.69;;;13.17;100.00
59419;BME280;45224;50.904;6.038;2023-05-10T07:23:43;99318.59;;;13.21;100.00
59419;BME280;45224;50.904;6.038;2023-05-10T07:25:13;99323.78;;;13.21;100.00
59419;BME280;45224;50.904;6.038;2023-05-10T07:26:44;99320.47;;;13.13;100.00
59419;BME280;45224;50.904;6.038;2023-05-10T07:28:15;99321.25;;;13.17;100.00
59419;BME280;45224;50.904;6.038;2023-05-10T07:29:46;99323.06;;;13.13;100.00
59419;BME280;45224;50.904;6.038;2023-05-10T07:31:17;99322.44;;;12.99;100.00
59419;BME280;45224;50.904;6.038;2023-05-10T07:32:47;99326.03;;;12.90;100.00
59419;BME280;45224;50.904;6.038;2023-05-10T07:34:18;99329.38;;;12.96;100.00
59419;BME280;45224;50.904;6.038;2023-05-10T07:35:49;99329.38;;;12.96;100.00
59419;BME280;45224;50.904;6.038;2023-05-10T07:37:20;99328.38;;;13.05;100.00
59419;BME280;45224;50.904;6.038;2023-05-10T07:38:50;99322.25;;;13.08;100.00
59419;BME280;45224;50.904;6.038;2023-05-10T07:40:21;99317.50;;;12.83;100.00
59419;BME280;45224;50.904;6.038;2023-05-10T07:41:51;99332.00;;;12.95;100.00
59419;BME280;45224;50.904;6.038;2023-05-10T07:43:22;99333.69;;;12.97;100.00
59419;BME280;45224;50.904;6.038;2023-05-10T07:44:52;99329.38;;;12.96;100.00
59419;BME280;45224;50.904;6.038;2023-05-10T07:46:23;99333.69;;;12.97;100.00
59419;BME280;45224;50.904;6.038;2023-05-10T07:47:53;99325.75;;;13.07;100.00
59419;BME280;45224;50.904;6.038;2023-05-10T07:49:24;99331.66;;;13.15;100.00
59419;BME280;45224;50.904;6.038;2023-05-10T07:50:54;99328.97;;;13.21;100.00
59419;BME280;45224;50.904;6.038;2023-05-10T07:52:25;99329.88;;;13.19;100.00
59419;BME280;45224;50.904;6.038;2023-05-10T07:53:55;99337.78;;;13.11;100.00
59419;BME280;45224;50.904;6.038;2023-05-10T07:55:26;99344.75;;;13.09;100.00
59419;BME280;45224;50.904;6.038;2023-05-10T07:56:57;99334.31;;;13.12;100.00
59419;BME280;45224;50.904;6.038;2023-05-10T07:58:27;99334.38;;;13.09;100.00
59419;BME280;45224;50.904;6.038;2023-05-10T07:59:58;99333.56;;;13.05;100.00
59419;BME280;45224;50.904;6.038;2023-05-10T08:01:33;99337.78;;;13.11;100.00
59419;BME280;45224;50.904;6.038;2023-05-10T08:03:03;99345.50;;;13.15;100.00
59419;BME280;45224;50.904;6.038;2023-05-10T08:04:34;99343.78;;;13.16;100.00
59419;BME280;45224;50.904;6.038;2023-05-10T08:06:05;99335.09;;;13.15;100.00
59419;BME280;45224;50.904;6.038;2023-05-10T08:07:36;99344.59;;;13.18;100.00
59419;BME280;45224;50.904;6.038;2023-05-10T08:09:06;99348.06;;;13.17;100.00
59419;BME280;45224;50.904;6.038;2023-05-10T08:10:37;99351.38;;;13.25;100.00
59419;BME280;45224;50.904;6.038;2023-05-10T08:12:07;99358.28;;;13.26;100.00
59419;BME280;45224;50.904;6.038;2023-05-10T08:13:38;99345.31;;;13.26;100.00
59419;BME280;45224;50.904;6.038;2023-05-10T08:15:09;99345.28;;;13.28;100.00
59419;BME280;45224;50.904;6.038;2023-05-10T08:16:39;99341.00;;;13.25;100.00
59419;BME280;45224;50.904;6.038;2023-05-10T08:18:10;99348.69;;;13.33;100.00
59419;BME280;45224;50.904;6.038;2023-05-10T08:19:40;99342.56;;;13.37;100.00
59419;BME280;45224;50.904;6.038;2023-05-10T08:21:10;99356.34;;;13.39;100.00
59419;BME280;45224;50.904;6.038;2023-05-10T08:22:41;99349.41;;;13.40;100.00